Time;durP1;ratioP1;P1;durP2;ratioP2;P2;SDS_P1;SDS_P2;PMS_P1;PMS_P2;Temp;Humidity;BMP_temperature;BMP_pressure;BME280_temperature;BME280_humidity;BME280_pressure;Samples;Min_cycle;Max_cycle;Signal;HPM_P1;HPM_P2
2022/11/30 00:01:08;;;;;;;;;;;5.70;97.40;;;;;;5044210;28;1520;-91
2022/11/30 00:03:36;;;;;;;;;;;6.10;97.60;;;;;;5035143;28;1014;-90
2022/11/30 00:06:06;;;;;;;;;;;5.80;96.90;;;;;;5044033;28;1563;-91
2022/11/30 00:08:33;;;;;;;;;;;5.70;97.40;;;;;;5040365;28;1495;-90
2022/11/30 00:11:07;;;;;;;;;;;5.70;97.10;;;;;;5045650;28;1764;-91
2022/11/30 00:13:34;;;;;;;;;;;5.70;97.50;;;;;;5043246;28;1512;-90
2022/11/30 00:16:03;;;;;;;;;;;5.80;96.80;;;;;;5043923;28;1948;-90
2022/11/30 00:18:30;;;;;;;;;;;5.80;97.50;;;;;;5044098;28;1505;-88
2022/11/30 00:20:59;;;;;;;;;;;5.70;97.30;;;;;;5044369;28;1563;-90
2022/11/30 00:23:31;;;;;;;;;;;5.70;97.70;;;;;;5043957;28;1417;-91
2022/11/30 00:26:00;;;;;;;;;;;5.60;97.50;;;;;;5030106;28;1385;-89
2022/11/30 00:28:28;;;;;;;;;;;5.50;97.80;;;;;;5047358;28;1603;-93
2022/11/30 00:30:57;;;;;;;;;;;5.60;97.50;;;;;;5050948;28;1591;-92
2022/11/30 00:33:25;;;;;;;;;;;5.70;97.80;;;;;;5050598;28;1576;-93
2022/11/30 00:35:56;;;;;;;;;;;5.80;97.40;;;;;;5050384;28;1879;-93
2022/11/30 00:38:24;;;;;;;;;;;5.80;97.70;;;;;;5048383;28;1656;-91
2022/11/30 00:40:55;;;;;;;;;;;5.70;96.90;;;;;;5053677;28;1386;-93
2022/11/30 00:43:23;;;;;;;;;;;5.70;97.30;;;;;;5057904;28;1609;-93
2022/11/30 00:45:51;;;;;;;;;;;5.70;97.40;;;;;;5046754;28;1541;-93
2022/11/30 00:48:19;;;;;;;;;;;5.70;97.20;;;;;;5045175;28;1791;-92
2022/11/30 00:50:47;;;;;;;;;;;5.70;97.30;;;;;;5040799;28;1669;-93
2022/11/30 00:53:15;;;;;;;;;;;5.50;97.60;;;;;;5041295;28;1534;-90
2022/11/30 00:55:43;;;;;;;;;;;5.70;97.80;;;;;;5042622;28;1883;-93
2022/11/30 00:58:13;;;;;;;;;;;5.70;97.70;;;;;;5045678;28;1576;-93
2022/11/30 01:00:40;;;;;;;;;;;5.60;97.50;;;;;;5047244;28;1686;-93
2022/11/30 01:03:09;;;;;;;;;;;5.70;97.40;;;;;;5043572;28;1499;-92
2022/11/30 01:05:37;;;;;;;;;;;5.70;97.40;;;;;;5045348;28;1151;-94
2022/11/30 01:08:06;;;;;;;;;;;5.70;97.40;;;;;;5043705;28;1544;-92
2022/11/30 01:10:34;;;;;;;;;;;5.70;97.70;;;;;;5038316;28;1520;-92
2022/11/30 01:13:02;;;;;;;;;;;5.70;97.40;;;;;;5038755;28;1500;-91
2022/11/30 01:15:31;;;;;;;;;;;5.80;97.20;;;;;;5039423;28;1906;-92
2022/11/30 01:17:59;;;;;;;;;;;5.80;97.60;;;;;;5040329;28;1289;-93
2022/11/30 01:20:27;;;;;;;;;;;5.80;97.50;;;;;;5048933;28;1414;-93
2022/11/30 01:22:55;;;;;;;;;;;5.90;96.80;;;;;;5050400;28;1497;-92
2022/11/30 01:25:22;;;;;;;;;;;5.80;97.30;;;;;;5043283;28;1559;-93
2022/11/30 01:27:51;;;;;;;;;;;5.80;96.90;;;;;;5046386;28;1080;-91
2022/11/30 01:30:18;;;;;;;;;;;5.90;97.00;;;;;;5045671;28;1726;-91
2022/11/30 01:32:48;;;;;;;;;;;5.90;96.90;;;;;;5043570;28;1540;-91
2022/11/30 01:35:17;;;;;;;;;;;5.90;97.00;;;;;;5043426;28;1906;-91
2022/11/30 01:37:45;;;;;;;;;;;6.00;97.20;;;;;;5046124;28;1608;-91
2022/11/30 01:40:13;;;;;;;;;;;5.90;96.50;;;;;;5047635;28;1585;-89
2022/11/30 01:42:45;;;;;;;;;;;5.80;97.20;;;;;;5045192;28;1635;-91
2022/11/30 01:45:13;;;;;;;;;;;5.70;97.50;;;;;;5055208;28;1536;-90
2022/11/30 01:47:42;;;;;;;;;;;5.70;97.40;;;;;;5056681;28;1589;-91
2022/11/30 01:50:13;;;;;;;;;;;5.90;97.30;;;;;;5052226;28;1571;-91
2022/11/30 01:52:44;;;;;;;;;;;5.80;97.80;;;;;;5049925;28;1626;-91
2022/11/30 01:55:16;;;;;;;;;;;5.80;97.30;;;;;;5047832;28;1709;-93
2022/11/30 01:57:46;;;;;;;;;;;5.70;97.60;;;;;;5053776;28;1882;-91
2022/11/30 02:00:15;;;;;;;;;;;6.00;97.60;;;;;;5045977;28;1503;-91
2022/11/30 02:02:46;;;;;;;;;;;5.80;97.60;;;;;;5045488;28;1033;-91
2022/11/30 02:05:17;;;;;;;;;;;5.70;97.40;;;;;;5047666;28;1519;-92
2022/11/30 02:07:45;;;;;;;;;;;5.70;97.40;;;;;;5048545;28;1546;-93
2022/11/30 02:10:15;;;;;;;;;;;5.70;97.40;;;;;;5043820;28;1626;-91
2022/11/30 02:18:25;;;;;;;;;;;5.80;97.90;;;;;;5025810;23;1627;-91
2022/11/30 02:20:59;;;;;;;;;;;5.80;97.40;;;;;;4992833;28;1419;-93
2022/11/30 02:23:42;;;;;;;;;;;5.70;97.40;;;;;;4986067;28;1698;-91
2022/11/30 02:26:15;;;;;;;;;;;5.70;98.10;;;;;;4991978;28;1713;-91
2022/11/30 02:28:54;;;;;;;;;;;6.00;97.50;;;;;;4988071;28;1553;-92
2022/11/30 02:31:25;;;;;;;;;;;5.80;97.40;;;;;;4986452;28;1640;-91
2022/11/30 02:33:53;;;;;;;;;;;5.70;97.50;;;;;;4989814;28;1037;-91
2022/11/30 02:36:22;;;;;;;;;;;5.70;97.80;;;;;;4985717;28;1883;-91
2022/11/30 02:38:50;;;;;;;;;;;5.90;97.40;;;;;;4988844;28;1513;-91
2022/11/30 02:41:20;;;;;;;;;;;5.80;97.20;;;;;;4989884;28;1525;-92
2022/11/30 02:43:50;;;;;;;;;;;5.90;97.40;;;;;;4996943;28;1690;-91
2022/11/30 02:46:21;;;;;;;;;;;6.10;97.50;;;;;;4999627;28;1604;-92
2022/11/30 02:48:51;;;;;;;;;;;6.00;97.30;;;;;;4998604;28;1613;-92
2022/11/30 02:51:22;;;;;;;;;;;5.90;97.30;;;;;;4997357;28;1648;-93
2022/11/30 02:53:54;;;;;;;;;;;5.70;97.50;;;;;;5002431;28;1553;-93
2022/11/30 02:56:22;;;;;;;;;;;5.90;97.30;;;;;;5001208;28;1892;-95
2022/11/30 02:58:51;;;;;;;;;;;5.80;97.20;;;;;;5001504;28;1581;-93
2022/11/30 03:01:19;;;;;;;;;;;5.80;97.10;;;;;;4998462;28;1574;-93
2022/11/30 03:03:47;;;;;;;;;;;5.90;96.90;;;;;;4988502;28;1598;-90
2022/11/30 03:06:15;;;;;;;;;;;5.80;97.10;;;;;;4988115;28;1752;-93
2022/11/30 03:08:43;;;;;;;;;;;5.80;97.30;;;;;;4987685;28;1640;-91
2022/11/30 03:11:11;;;;;;;;;;;5.60;97.50;;;;;;4984765;28;1577;-92
2022/11/30 03:13:39;;;;;;;;;;;6.00;97.90;;;;;;4987176;28;1565;-92
2022/11/30 03:16:08;;;;;;;;;;;5.90;97.80;;;;;;4990310;28;1985;-90
2022/11/30 03:18:36;;;;;;;;;;;5.70;97.70;;;;;;4990283;28;1672;-91
2022/11/30 03:21:05;;;;;;;;;;;5.80;97.50;;;;;;4999063;28;1551;-91
2022/11/30 03:23:34;;;;;;;;;;;5.80;97.60;;;;;;5009902;28;1716;-90
2022/11/30 03:26:02;;;;;;;;;;;5.90;97.20;;;;;;5011181;28;1584;-92
2022/11/30 03:28:30;;;;;;;;;;;5.80;97.10;;;;;;5017384;28;1723;-93
2022/11/30 03:30:58;;;;;;;;;;;5.80;97.50;;;;;;5017670;28;1570;-91
2022/11/30 03:33:27;;;;;;;;;;;5.90;97.30;;;;;;5013042;28;1553;-91
2022/11/30 03:35:59;;;;;;;;;;;5.90;97.60;;;;;;5005021;28;1557;-90
2022/11/30 03:38:26;;;;;;;;;;;5.80;97.90;;;;;;5003103;28;1907;-90
2022/11/30 03:40:59;;;;;;;;;;;6.00;97.40;;;;;;5002900;28;1022;-89
2022/11/30 03:43:27;;;;;;;;;;;5.90;97.70;;;;;;5003766;28;1642;-90
2022/11/30 03:45:55;;;;;;;;;;;5.60;97.20;;;;;;5004949;28;1092;-91
2022/11/30 03:48:23;;;;;;;;;;;5.90;97.30;;;;;;5007477;28;1561;-91
2022/11/30 03:50:52;;;;;;;;;;;5.90;97.90;;;;;;5017554;28;1534;-91
2022/11/30 03:53:21;;;;;;;;;;;5.90;97.70;;;;;;5007475;28;1563;-90
2022/11/30 03:55:51;;;;;;;;;;;5.90;97.60;;;;;;5005536;28;1558;-90
2022/11/30 03:58:19;;;;;;;;;;;5.80;98.00;;;;;;5009112;28;1883;-91
2022/11/30 04:00:47;;;;;;;;;;;5.70;97.50;;;;;;5019933;28;1104;-90
2022/11/30 04:03:15;;;;;;;;;;;5.80;97.60;;;;;;5015009;28;1041;-90
2022/11/30 04:05:43;;;;;;;;;;;5.60;97.70;;;;;;5009558;28;1718;-91
2022/11/30 04:08:13;;;;;;;;;;;5.70;98.50;;;;;;5005839;28;1264;-89
2022/11/30 04:10:40;;;;;;;;;;;5.70;98.30;;;;;;5003982;28;1676;-90
2022/11/30 04:13:08;;;;;;;;;;;5.70;98.20;;;;;;5004237;28;1578;-89
2022/11/30 04:15:36;;;;;;;;;;;5.80;98.00;;;;;;5006734;28;1640;-90
2022/11/30 04:18:04;;;;;;;;;;;5.90;98.20;;;;;;5011145;28;1875;-91
2022/11/30 04:20:32;;;;;;;;;;;5.80;97.90;;;;;;5015593;28;1565;-90
2022/11/30 04:23:07;;;;;;;;;;;5.90;98.10;;;;;;5014111;28;1005;-90
2022/11/30 04:25:38;;;;;;;;;;;5.90;97.70;;;;;;5003707;28;1659;-91
2022/11/30 04:28:06;;;;;;;;;;;5.70;98.20;;;;;;5003908;28;1510;-91
2022/11/30 04:30:34;;;;;;;;;;;5.90;98.30;;;;;;5006995;28;1029;-91
2022/11/30 04:33:03;;;;;;;;;;;6.10;98.30;;;;;;5004726;28;1584;-91
2022/11/30 04:35:31;;;;;;;;;;;6.10;98.20;;;;;;5002060;28;1557;-92
2022/11/30 04:37:59;;;;;;;;;;;5.80;97.80;;;;;;5003969;28;1989;-90
2022/11/30 04:40:27;;;;;;;;;;;6.10;98.00;;;;;;5006143;28;1539;-91
2022/11/30 04:42:57;;;;;;;;;;;5.70;98.10;;;;;;5005763;28;1670;-91
2022/11/30 04:45:24;;;;;;;;;;;5.70;98.50;;;;;;5005621;28;1649;-92
2022/11/30 04:47:55;;;;;;;;;;;5.80;98.50;;;;;;5008737;28;1562;-91
2022/11/30 04:50:23;;;;;;;;;;;5.80;98.50;;;;;;5004898;28;1581;-91
2022/11/30 04:52:51;;;;;;;;;;;5.60;98.50;;;;;;5001292;28;1106;-91
2022/11/30 04:55:19;;;;;;;;;;;5.70;98.40;;;;;;5003643;28;1540;-91
2022/11/30 04:57:47;;;;;;;;;;;5.70;98.70;;;;;;5004830;28;1911;-92
2022/11/30 05:00:17;;;;;;;;;;;6.00;98.60;;;;;;5002561;28;1583;-90
2022/11/30 05:02:45;;;;;;;;;;;5.80;99.00;;;;;;5001386;28;1751;-89
2022/11/30 05:05:19;;;;;;;;;;;5.70;98.60;;;;;;5014189;28;1554;-90
2022/11/30 05:07:49;;;;;;;;;;;5.70;98.70;;;;;;5012251;28;1745;-90
2022/11/30 05:10:16;;;;;;;;;;;5.60;99.10;;;;;;5001788;28;1705;-90
2022/11/30 05:12:44;;;;;;;;;;;5.90;98.60;;;;;;5001864;28;1456;-90
2022/11/30 05:15:12;;;;;;;;;;;5.70;98.70;;;;;;5002567;28;1611;-89
2022/11/30 05:17:43;;;;;;;;;;;5.60;99.00;;;;;;5003291;28;1918;-91
2022/11/30 05:20:11;;;;;;;;;;;5.70;99.40;;;;;;5013019;28;1573;-92
2022/11/30 05:22:42;;;;;;;;;;;5.80;98.70;;;;;;5002427;28;1522;-92
2022/11/30 05:25:10;;;;;;;;;;;6.00;98.80;;;;;;5003241;28;1014;-92
2022/11/30 05:27:38;;;;;;;;;;;5.60;98.90;;;;;;5002274;28;1565;-91
2022/11/30 05:30:06;;;;;;;;;;;5.60;99.30;;;;;;5002360;28;1672;-92
2022/11/30 05:32:35;;;;;;;;;;;5.50;99.90;;;;;;5001096;28;1532;-91
2022/11/30 05:35:04;;;;;;;;;;;5.60;99.50;;;;;;5001140;28;1624;-91
2022/11/30 05:37:32;;;;;;;;;;;5.70;99.20;;;;;;5000797;28;1923;-90
2022/11/30 05:40:00;;;;;;;;;;;5.80;98.80;;;;;;5002476;28;1585;-90
2022/11/30 05:42:27;;;;;;;;;;;5.80;98.90;;;;;;5001761;28;1652;-90
2022/11/30 05:44:55;;;;;;;;;;;5.70;98.80;;;;;;5001627;28;1522;-91
2022/11/30 05:47:23;;;;;;;;;;;5.80;99.10;;;;;;5000833;28;1375;-91
2022/11/30 05:49:50;;;;;;;;;;;5.80;98.60;;;;;;5001282;28;1685;-90
2022/11/30 05:52:20;;;;;;;;;;;5.80;98.60;;;;;;4999779;28;1677;-91
2022/11/30 05:54:47;;;;;;;;;;;5.80;99.20;;;;;;4999683;28;990;-91
2022/11/30 05:57:16;;;;;;;;;;;5.70;98.60;;;;;;5000361;28;1538;-89
2022/11/30 05:59:43;;;;;;;;;;;5.80;98.70;;;;;;4999455;28;1993;-89
2022/11/30 06:02:11;;;;;;;;;;;5.80;98.50;;;;;;4999672;28;1562;-90
2022/11/30 06:04:39;;;;;;;;;;;5.90;98.70;;;;;;4998564;28;1757;-91
2022/11/30 06:07:10;;;;;;;;;;;5.90;98.50;;;;;;4988724;28;1596;-89
2022/11/30 06:09:39;;;;;;;;;;;5.80;99.00;;;;;;5008991;28;1618;-89
2022/11/30 06:12:07;;;;;;;;;;;5.80;99.10;;;;;;5007733;28;1685;-89
2022/11/30 06:14:35;;;;;;;;;;;5.70;99.20;;;;;;5001188;28;1735;-89
2022/11/30 06:17:04;;;;;;;;;;;5.70;98.70;;;;;;5000568;28;1502;-90
2022/11/30 06:19:32;;;;;;;;;;;5.70;99.00;;;;;;5003297;28;1987;-91
2022/11/30 06:22:00;;;;;;;;;;;5.90;98.60;;;;;;5005349;28;1571;-91
2022/11/30 06:24:29;;;;;;;;;;;5.80;98.60;;;;;;5003769;28;1558;-90
2022/11/30 06:26:58;;;;;;;;;;;5.80;99.00;;;;;;5004122;28;1708;-85
2022/11/30 06:29:26;;;;;;;;;;;5.70;99.10;;;;;;5001787;28;1368;-84
2022/11/30 06:31:53;;;;;;;;;;;5.50;99.80;;;;;;4996004;28;1025;-87
2022/11/30 06:34:21;;;;;;;;;;;5.50;99.90;;;;;;4996683;28;1224;-88
2022/11/30 06:36:49;;;;;;;;;;;5.50;99.90;;;;;;5002324;28;1763;-87
2022/11/30 06:39:16;;;;;;;;;;;5.50;99.90;;;;;;4998907;28;1989;-89
2022/11/30 06:42:05;;;;;;;;;;;5.50;99.50;;;;;;4993550;28;1557;-84
2022/11/30 06:44:33;;;;;;;;;;;5.50;99.70;;;;;;4998584;28;1268;-86
2022/11/30 06:47:01;;;;;;;;;;;5.50;99.60;;;;;;4995600;28;1590;-87
2022/11/30 06:49:28;;;;;;;;;;;5.50;99.90;;;;;;4997227;28;1441;-86
2022/11/30 06:51:56;;;;;;;;;;;5.50;99.60;;;;;;4998339;28;1086;-85
2022/11/30 06:54:24;;;;;;;;;;;5.50;99.60;;;;;;4989404;28;1405;-88
2022/11/30 06:56:51;;;;;;;;;;;5.60;99.80;;;;;;4993712;28;1368;-87
2022/11/30 06:59:20;;;;;;;;;;;5.50;99.70;;;;;;5000743;28;1883;-88
2022/11/30 07:01:48;;;;;;;;;;;5.50;99.80;;;;;;4991236;28;1608;-89
2022/11/30 07:04:16;;;;;;;;;;;5.50;99.70;;;;;;5001111;28;1466;-89
2022/11/30 07:06:44;;;;;;;;;;;5.50;99.90;;;;;;4993860;28;1719;-88
2022/11/30 07:09:12;;;;;;;;;;;5.40;99.50;;;;;;4999559;28;1295;-88
2022/11/30 07:11:39;;;;;;;;;;;5.50;99.70;;;;;;4998407;28;1049;-88
2022/11/30 07:14:07;;;;;;;;;;;5.40;99.40;;;;;;5010180;28;1233;-89
2022/11/30 07:16:36;;;;;;;;;;;5.40;99.60;;;;;;4993469;28;1018;-89
2022/11/30 07:19:04;;;;;;;;;;;5.50;99.80;;;;;;5005005;28;1887;-88
2022/11/30 07:21:32;;;;;;;;;;;5.50;99.60;;;;;;4992400;28;1724;-86
2022/11/30 07:26:41;;;;;;;;;;;5.50;99.70;;;;;;4967252;28;1293;-88
2022/11/30 07:29:09;;;;;;;;;;;5.50;99.50;;;;;;4995499;28;1658;-87
2022/11/30 07:31:38;;;;;;;;;;;5.60;99.50;;;;;;5000422;28;1599;-88
2022/11/30 07:34:07;;;;;;;;;;;5.40;99.80;;;;;;5001481;28;970;-88
2022/11/30 07:36:36;;;;;;;;;;;5.40;99.90;;;;;;4997561;28;1701;-88
2022/11/30 07:39:04;;;;;;;;;;;5.40;99.80;;;;;;4994136;28;1922;-90
2022/11/30 07:41:32;;;;;;;;;;;5.40;99.70;;;;;;4997416;28;1097;-90
2022/11/30 07:43:59;;;;;;;;;;;5.50;99.50;;;;;;4987271;28;1451;-89
2022/11/30 07:46:27;;;;;;;;;;;5.40;99.70;;;;;;4991977;28;1522;-89
2022/11/30 07:48:56;;;;;;;;;;;5.40;99.50;;;;;;4985703;28;1791;-88
2022/11/30 07:51:24;;;;;;;;;;;5.40;99.70;;;;;;4989709;28;1491;-86
2022/11/30 07:53:51;;;;;;;;;;;5.60;99.60;;;;;;4988952;28;1695;-87
2022/11/30 07:56:20;;;;;;;;;;;5.30;99.60;;;;;;4999838;28;1029;-87
2022/11/30 07:58:48;;;;;;;;;;;5.30;99.90;;;;;;4981865;28;1970;-88
2022/11/30 08:01:16;;;;;;;;;;;5.40;99.50;;;;;;4986249;28;1636;-88
2022/11/30 08:03:44;;;;;;;;;;;5.40;99.90;;;;;;4993991;28;1174;-87
2022/11/30 08:06:14;;;;;;;;;;;5.40;99.80;;;;;;4998665;28;1501;-86
2022/11/30 08:08:43;;;;;;;;;;;5.50;99.60;;;;;;4995826;28;1320;-87
2022/11/30 08:11:12;;;;;;;;;;;5.50;99.60;;;;;;4995286;28;1574;-86
2022/11/30 08:13:40;;;;;;;;;;;5.30;99.70;;;;;;4993107;28;1367;-87
2022/11/30 08:16:08;;;;;;;;;;;5.40;99.90;;;;;;4998314;28;1497;-84
2022/11/30 08:18:36;;;;;;;;;;;5.60;99.70;;;;;;5002746;28;1297;-85
2022/11/30 08:21:05;;;;;;;;;;;5.70;99.10;;;;;;4988328;28;1962;-87
2022/11/30 08:23:35;;;;;;;;;;;6.00;99.20;;;;;;4988652;28;1063;-87
2022/11/30 08:26:05;;;;;;;;;;;5.80;98.90;;;;;;4977657;28;1589;-85
2022/11/30 08:28:34;;;;;;;;;;;5.60;98.60;;;;;;4993517;28;1435;-88
2022/11/30 08:31:02;;;;;;;;;;;6.10;98.70;;;;;;5003237;28;1069;-87
2022/11/30 08:33:30;;;;;;;;;;;5.80;98.60;;;;;;5002378;28;1704;-86
2022/11/30 08:36:05;;;;;;;;;;;5.80;98.30;;;;;;4992625;28;1217;-87
2022/11/30 08:38:33;;;;;;;;;;;5.80;98.60;;;;;;4992054;28;1666;-87
2022/11/30 08:41:02;;;;;;;;;;;5.80;98.30;;;;;;4995954;28;1918;-88
2022/11/30 08:43:29;;;;;;;;;;;5.80;98.20;;;;;;4993639;28;1341;-87
2022/11/30 08:45:57;;;;;;;;;;;5.90;98.00;;;;;;4981493;28;1078;-87
2022/11/30 08:48:25;;;;;;;;;;;5.90;98.10;;;;;;4989981;28;1788;-87
2022/11/30 08:50:53;;;;;;;;;;;5.80;98.10;;;;;;4987778;28;1307;-87
2022/11/30 08:53:20;;;;;;;;;;;5.90;97.90;;;;;;4989027;28;1053;-88
2022/11/30 08:55:55;;;;;;;;;;;6.00;97.40;;;;;;4991804;28;990;-87
2022/11/30 08:58:26;;;;;;;;;;;6.00;97.80;;;;;;4978419;28;1289;-87
2022/11/30 09:00:54;;;;;;;;;;;6.00;97.70;;;;;;4999179;28;1950;-87
2022/11/30 09:03:24;;;;;;;;;;;6.00;97.30;;;;;;5000691;28;1687;-87
2022/11/30 09:05:52;;;;;;;;;;;6.10;97.70;;;;;;4987359;28;950;-87
2022/11/30 09:08:20;;;;;;;;;;;6.00;97.20;;;;;;4984522;28;1416;-91
2022/11/30 09:10:48;;;;;;;;;;;5.90;97.20;;;;;;4980453;28;1029;-87
2022/11/30 09:13:15;;;;;;;;;;;6.10;97.10;;;;;;4983655;28;1093;-89
2022/11/30 09:15:44;;;;;;;;;;;6.10;97.10;;;;;;4995701;28;1549;-90
2022/11/30 09:18:13;;;;;;;;;;;6.10;97.20;;;;;;4973375;28;1420;-87
2022/11/30 09:20:41;;;;;;;;;;;5.90;97.00;;;;;;4988612;28;1948;-89
2022/11/30 09:23:09;;;;;;;;;;;6.10;97.30;;;;;;4993497;28;1021;-87
2022/11/30 09:25:36;;;;;;;;;;;5.90;97.00;;;;;;4982520;28;1743;-85
2022/11/30 09:28:04;;;;;;;;;;;5.70;97.00;;;;;;4981564;28;1777;-87
2022/11/30 09:30:38;;;;;;;;;;;6.00;97.20;;;;;;4981427;28;1054;-89
2022/11/30 09:33:09;;;;;;;;;;;6.00;97.40;;;;;;4982859;28;1522;-88
2022/11/30 09:35:37;;;;;;;;;;;5.90;97.50;;;;;;4985864;28;963;-86
2022/11/30 09:38:05;;;;;;;;;;;6.00;96.80;;;;;;4988794;28;1503;-85
2022/11/30 09:40:36;;;;;;;;;;;6.10;97.00;;;;;;4996435;28;1910;-88
2022/11/30 09:43:06;;;;;;;;;;;6.10;96.90;;;;;;4996345;28;1164;-88
2022/11/30 09:45:35;;;;;;;;;;;6.00;96.70;;;;;;4990850;28;1279;-86
2022/11/30 09:48:18;;;;;;;;;;;6.00;96.80;;;;;;4992826;28;1383;-89
2022/11/30 09:50:47;;;;;;;;;;;6.20;97.20;;;;;;4995623;28;1587;-87
2022/11/30 09:53:19;;;;;;;;;;;6.20;96.50;;;;;;5004144;28;1025;-91
2022/11/30 09:55:55;;;;;;;;;;;6.20;96.70;;;;;;5003264;28;1660;-87
2022/11/30 09:58:27;;;;;;;;;;;6.10;96.30;;;;;;5000818;28;1408;-90
2022/11/30 10:00:55;;;;;;;;;;;6.10;96.90;;;;;;4998941;28;1903;-88
2022/11/30 10:03:24;;;;;;;;;;;6.20;96.50;;;;;;4981528;28;1017;-89
2022/11/30 10:05:54;;;;;;;;;;;6.20;96.40;;;;;;4997287;28;1191;-89
2022/11/30 10:08:29;;;;;;;;;;;6.20;96.40;;;;;;4993544;28;1364;-89
2022/11/30 10:11:01;;;;;;;;;;;6.20;96.50;;;;;;4984900;28;995;-87
2022/11/30 10:13:39;;;;;;;;;;;6.20;96.70;;;;;;4988675;28;1021;-89
2022/11/30 10:16:11;;;;;;;;;;;6.10;96.90;;;;;;5004655;28;998;-86
2022/11/30 10:19:00;;;;;;;;;;;6.20;96.80;;;;;;5005125;28;1578;-87
2022/11/30 10:21:36;;;;;;;;;;;6.30;96.70;;;;;;4994695;28;1903;-86
2022/11/30 10:24:19;;;;;;;;;;;6.20;96.70;;;;;;4991346;28;1727;-85
2022/11/30 10:26:51;;;;;;;;;;;6.20;96.80;;;;;;5018836;28;1092;-87
2022/11/30 10:29:20;;;;;;;;;;;6.20;96.70;;;;;;5001577;28;1284;-88
2022/11/30 10:31:51;;;;;;;;;;;6.20;96.50;;;;;;4981557;28;1010;-87
2022/11/30 10:34:21;;;;;;;;;;;6.50;97.10;;;;;;4980862;28;1537;-88
2022/11/30 10:36:52;;;;;;;;;;;6.10;96.90;;;;;;4978245;28;971;-89
2022/11/30 10:39:22;;;;;;;;;;;6.20;96.90;;;;;;4985259;28;1695;-90
2022/11/30 10:41:52;;;;;;;;;;;6.20;96.70;;;;;;4985624;28;1975;-89
2022/11/30 10:44:23;;;;;;;;;;;6.10;96.80;;;;;;4981450;28;1646;-88
2022/11/30 10:46:55;;;;;;;;;;;6.10;96.90;;;;;;4992699;28;1065;-90
2022/11/30 10:49:25;;;;;;;;;;;6.10;96.80;;;;;;5000698;28;1497;-89
2022/11/30 10:51:54;;;;;;;;;;;6.10;97.00;;;;;;4992806;28;1579;-89
2022/11/30 10:54:22;;;;;;;;;;;6.10;97.60;;;;;;4983933;28;1762;-89
2022/11/30 10:56:50;;;;;;;;;;;5.80;97.60;;;;;;4996503;28;1392;-87
2022/11/30 10:59:19;;;;;;;;;;;5.80;97.70;;;;;;5000640;28;1134;-89
2022/11/30 11:01:47;;;;;;;;;;;5.80;97.90;;;;;;5001002;28;1902;-88
2022/11/30 11:04:16;;;;;;;;;;;5.80;97.70;;;;;;4989275;28;1242;-89
2022/11/30 11:06:46;;;;;;;;;;;5.80;97.80;;;;;;4995382;28;1752;-87
2022/11/30 11:09:34;;;;;;;;;;;5.90;97.70;;;;;;4982773;28;1934;-87
2022/11/30 11:12:03;;;;;;;;;;;6.20;97.60;;;;;;4985069;28;1505;-88
2022/11/30 11:14:31;;;;;;;;;;;6.20;96.80;;;;;;4995644;28;1088;-85
2022/11/30 11:17:05;;;;;;;;;;;6.10;96.80;;;;;;4993174;28;1394;-88
2022/11/30 11:19:35;;;;;;;;;;;6.40;96.90;;;;;;4997687;28;1351;-91
2022/11/30 11:22:05;;;;;;;;;;;6.20;97.40;;;;;;4997906;28;1902;-86
2022/11/30 11:24:33;;;;;;;;;;;6.20;96.90;;;;;;4986426;28;1722;-87
2022/11/30 11:27:01;;;;;;;;;;;6.20;96.90;;;;;;4998907;28;1343;-86
2022/11/30 11:29:33;;;;;;;;;;;6.10;97.10;;;;;;5004064;28;1481;-85
2022/11/30 11:32:21;;;;;;;;;;;6.00;97.40;;;;;;4995636;28;1054;-87
2022/11/30 11:34:49;;;;;;;;;;;6.00;97.50;;;;;;4989749;28;1075;-86
2022/11/30 11:37:32;;;;;;;;;;;5.70;97.70;;;;;;4989965;28;1599;-85
2022/11/30 11:40:02;;;;;;;;;;;5.80;98.50;;;;;;5003156;28;1014;-87
2022/11/30 11:42:32;;;;;;;;;;;5.60;98.60;;;;;;4991781;28;1907;-84
2022/11/30 11:45:00;;;;;;;;;;;5.80;98.50;;;;;;4994990;28;1698;-86
2022/11/30 11:47:38;;;;;;;;;;;6.10;97.60;;;;;;4993790;28;1769;-87
2022/11/30 11:50:14;;;;;;;;;;;6.10;97.60;;;;;;5000360;28;1563;-86
2022/11/30 11:52:43;;;;;;;;;;;6.10;97.40;;;;;;5000008;28;1130;-88
2022/11/30 11:55:14;;;;;;;;;;;6.20;97.70;;;;;;5012765;28;1129;-88
2022/11/30 11:57:46;;;;;;;;;;;6.10;97.80;;;;;;5009791;28;1728;-90
2022/11/30 12:00:16;;;;;;;;;;;6.00;97.70;;;;;;4998400;28;1671;-87
2022/11/30 12:02:48;;;;;;;;;;;6.10;97.50;;;;;;5004610;28;1988;-88
2022/11/30 12:05:18;;;;;;;;;;;6.20;97.00;;;;;;4994254;28;1021;-89
2022/11/30 12:07:54;;;;;;;;;;;6.10;97.10;;;;;;4999339;28;1704;-87
2022/11/30 12:10:26;;;;;;;;;;;6.10;97.20;;;;;;4997755;28;1057;-91
2022/11/30 12:13:16;;;;;;;;;;;6.00;97.20;;;;;;4999330;28;1622;-88
2022/11/30 12:15:52;;;;;;;;;;;6.20;97.10;;;;;;4991109;28;1666;-89
2022/11/30 12:18:23;;;;;;;;;;;6.20;97.00;;;;;;4999672;28;1653;-87
2022/11/30 12:20:56;;;;;;;;;;;6.30;97.00;;;;;;4983700;28;1162;-86
2022/11/30 12:23:37;;;;;;;;;;;6.20;96.90;;;;;;4981611;28;1037;-88
2022/11/30 12:26:08;;;;;;;;;;;6.20;97.30;;;;;;4996601;28;1269;-89
2022/11/30 12:28:38;;;;;;;;;;;6.20;96.80;;;;;;5008068;28;1731;-90
2022/11/30 12:31:10;;;;;;;;;;;6.20;97.00;;;;;;4996116;28;1571;-89
2022/11/30 12:33:44;;;;;;;;;;;6.30;97.20;;;;;;5016399;28;1613;-89
2022/11/30 12:36:16;;;;;;;;;;;6.10;97.30;;;;;;5017313;28;1541;-89
2022/11/30 12:38:47;;;;;;;;;;;6.20;97.30;;;;;;4994457;28;1574;-87
2022/11/30 12:41:33;;;;;;;;;;;6.50;97.10;;;;;;4994799;28;1989;-87
2022/11/30 12:44:09;;;;;;;;;;;6.20;97.30;;;;;;4970369;29;1629;-89
2022/11/30 12:46:41;;;;;;;;;;;6.10;97.20;;;;;;5002710;28;1050;-88
2022/11/30 12:49:13;;;;;;;;;;;6.00;97.00;;;;;;4993600;28;1385;-87
2022/11/30 12:51:44;;;;;;;;;;;6.10;97.20;;;;;;5004500;28;1778;-89
2022/11/30 12:54:18;;;;;;;;;;;6.10;97.00;;;;;;5004901;28;1637;-90
2022/11/30 12:56:48;;;;;;;;;;;6.10;97.10;;;;;;4985904;28;1703;-89
2022/11/30 12:59:22;;;;;;;;;;;6.20;97.10;;;;;;5001559;28;1288;-90
2022/11/30 13:02:04;;;;;;;;;;;6.50;97.00;;;;;;4996437;28;1993;-90
2022/11/30 13:04:34;;;;;;;;;;;6.30;97.00;;;;;;4997972;28;1622;-88
2022/11/30 13:07:07;;;;;;;;;;;6.10;97.20;;;;;;5002322;28;1690;-89
2022/11/30 13:09:37;;;;;;;;;;;6.20;97.10;;;;;;4991942;28;1343;-88
2022/11/30 13:12:07;;;;;;;;;;;6.20;97.30;;;;;;5006575;28;1243;-88
2022/11/30 13:14:36;;;;;;;;;;;6.10;97.30;;;;;;4991333;28;1822;-89
2022/11/30 13:17:04;;;;;;;;;;;6.20;97.30;;;;;;4999899;28;1573;-90
2022/11/30 13:19:50;;;;;;;;;;;6.10;97.30;;;;;;5000787;28;1705;-90
2022/11/30 13:22:22;;;;;;;;;;;6.00;97.70;;;;;;4997703;28;1903;-87
2022/11/30 13:24:54;;;;;;;;;;;5.80;98.00;;;;;;4995193;28;1047;-90
2022/11/30 13:27:24;;;;;;;;;;;5.80;98.30;;;;;;4998343;28;1710;-87
2022/11/30 13:30:00;;;;;;;;;;;6.00;97.90;;;;;;5005950;28;1552;-87
2022/11/30 13:32:30;;;;;;;;;;;6.00;98.30;;;;;;5003024;28;1124;-86
2022/11/30 13:35:37;;;;;;;;;;;5.90;98.10;;;;;;4980937;28;1659;-89
2022/11/30 13:38:06;;;;;;;;;;;6.00;98.40;;;;;;5010788;28;1538;-89
2022/11/30 13:40:57;;;;;;;;;;;5.90;97.90;;;;;;5008150;28;1724;-88
2022/11/30 13:43:26;;;;;;;;;;;6.10;97.90;;;;;;4996212;28;1977;-88
2022/11/30 13:46:20;;;;;;;;;;;6.10;97.80;;;;;;4996768;28;1618;-87
2022/11/30 13:48:49;;;;;;;;;;;6.20;97.90;;;;;;4954735;28;1564;-87
2022/11/30 13:51:31;;;;;;;;;;;6.40;98.00;;;;;;4999293;28;1766;-87
2022/11/30 13:54:30;;;;;;;;;;;6.10;98.00;;;;;;4996812;28;1404;-88
2022/11/30 13:56:59;;;;;;;;;;;6.10;98.10;;;;;;4970410;28;1506;-87
2022/11/30 13:59:35;;;;;;;;;;;6.20;97.60;;;;;;4999109;28;1212;-87
2022/11/30 14:02:21;;;;;;;;;;;6.30;97.60;;;;;;4991150;28;1907;-87
2022/11/30 14:04:49;;;;;;;;;;;5.90;97.70;;;;;;4991128;28;1061;-88
2022/11/30 14:07:36;;;;;;;;;;;5.80;97.90;;;;;;4991976;28;1712;-87
2022/11/30 14:10:25;;;;;;;;;;;5.90;98.60;;;;;;4979429;28;1570;-89
2022/11/30 14:13:01;;;;;;;;;;;6.00;98.30;;;;;;4987444;28;1585;-88
2022/11/30 14:15:44;;;;;;;;;;;6.00;98.50;;;;;;4992220;28;1312;-89
2022/11/30 14:18:16;;;;;;;;;;;5.90;99.10;;;;;;4997561;28;1573;-88
2022/11/30 14:20:45;;;;;;;;;;;5.90;98.90;;;;;;4982001;28;1584;-88
2022/11/30 14:23:14;;;;;;;;;;;5.90;98.60;;;;;;4997609;28;1902;-89
2022/11/30 14:25:46;;;;;;;;;;;5.90;98.90;;;;;;4997405;28;1263;-88
2022/11/30 14:28:18;;;;;;;;;;;5.80;98.90;;;;;;4998802;28;1564;-88
2022/11/30 14:30:46;;;;;;;;;;;5.70;99.00;;;;;;4996427;28;1641;-87
2022/11/30 14:33:17;;;;;;;;;;;5.90;98.80;;;;;;4986611;28;1050;-87
2022/11/30 14:35:50;;;;;;;;;;;5.80;98.80;;;;;;4997874;28;1084;-87
2022/11/30 14:38:21;;;;;;;;;;;5.90;98.70;;;;;;4992275;28;1423;-89
2022/11/30 14:40:49;;;;;;;;;;;6.00;98.50;;;;;;4999625;28;1839;-88
2022/11/30 14:43:18;;;;;;;;;;;5.90;98.40;;;;;;4999114;28;1974;-87
2022/11/30 14:45:56;;;;;;;;;;;5.80;98.50;;;;;;4985266;28;1717;-87
2022/11/30 14:48:32;;;;;;;;;;;5.70;98.90;;;;;;4993778;28;1691;-89
2022/11/30 14:51:01;;;;;;;;;;;5.90;98.60;;;;;;4994825;28;1613;-88
2022/11/30 14:53:32;;;;;;;;;;;6.00;98.80;;;;;;4988172;28;1871;-88
2022/11/30 14:56:04;;;;;;;;;;;6.00;98.40;;;;;;4997193;28;1014;-88
2022/11/30 14:58:39;;;;;;;;;;;6.00;98.70;;;;;;4981099;28;1329;-89
2022/11/30 15:01:15;;;;;;;;;;;6.00;98.70;;;;;;4992559;28;1698;-89
2022/11/30 15:03:44;;;;;;;;;;;5.90;98.50;;;;;;5003565;28;1903;-88
2022/11/30 15:06:14;;;;;;;;;;;5.90;98.40;;;;;;5001026;28;1015;-88
2022/11/30 15:08:43;;;;;;;;;;;5.80;98.90;;;;;;5002763;28;1320;-88
2022/11/30 15:11:11;;;;;;;;;;;5.70;98.70;;;;;;5002864;28;1725;-88